Time;durP1;ratioP1;P1;durP2;ratioP2;P2;SDS_P1;SDS_P2;PMS_P1;PMS_P2;Temp;Humidity;BMP_temperature;BMP_pressure;BME280_temperature;BME280_humidity;BME280_pressure;Samples;Min_cycle;Max_cycle;Signal;HPM_P1;HPM_P2
2021/04/05 00:00:16;;;;;;;2.53;1.50;;;;;;;1.64;92.23;99113.09;2571178;55;20140;-70
2021/04/05 00:02:44;;;;;;;2.70;1.73;;;;;;;1.61;92.16;99113.31;2572037;55;20124;-69
2021/04/05 00:05:16;;;;;;;4.40;1.40;;;;;;;1.58;92.07;99111.72;2571630;55;20129;-70
2021/04/05 00:07:45;;;;;;;3.47;1.40;;;;;;;1.56;92.29;99121.50;2571944;55;20540;-71
2021/04/05 00:10:19;;;;;;;3.35;2.10;;;;;;;1.48;92.29;99098.28;2572317;55;20124;-70
2021/04/05 00:12:48;;;;;;;4.07;1.87;;;;;;;1.52;92.43;99112.94;2571683;55;20118;-70
2021/04/05 00:15:17;;;;;;;9.73;2.87;;;;;;;1.46;92.77;99105.44;2571766;55;20122;-70
2021/04/05 00:17:49;;;;;;;4.25;2.58;;;;;;;1.35;92.45;99102.66;2572053;55;20720;-70
2021/04/05 00:20:22;;;;;;;5.32;2.25;;;;;;;1.35;92.61;99102.66;2572402;55;20114;-69
2021/04/05 00:22:52;;;;;;;5.15;2.22;;;;;;;1.38;93.56;99102.44;2571267;55;20110;-69
2021/04/05 00:25:27;;;;;;;6.32;2.33;;;;;;;1.35;92.45;99105.28;2571524;55;20125;-69
2021/04/05 00:27:55;;;;;;;6.40;3.15;;;;;;;1.37;92.60;99100.75;2572386;55;20520;-69
2021/04/05 00:30:30;;;;;;;8.60;4.15;;;;;;;1.36;92.67;99104.34;2571877;55;20122;-69
2021/04/05 00:32:57;;;;;;;5.85;2.37;;;;;;;1.33;92.96;99094.84;2572295;55;20121;-70
2021/04/05 00:35:31;;;;;;;6.03;2.60;;;;;;;1.36;92.47;99101.72;2571119;55;20136;-70
2021/04/05 00:37:59;;;;;;;8.48;3.30;;;;;;;1.36;91.84;99105.19;2571176;55;20166;-69
2021/04/05 00:40:33;;;;;;;6.20;2.80;;;;;;;1.37;92.27;99092.88;2572111;55;20228;-69
2021/04/05 00:43:02;;;;;;;8.00;3.80;;;;;;;1.35;92.21;99100.03;2571993;55;20436;-69
2021/04/05 00:45:33;;;;;;;11.57;3.30;;;;;;;1.33;92.01;99078.25;2571789;55;20588;-69
2021/04/05 00:48:02;;;;;;;7.40;3.15;;;;;;;1.32;92.24;99092.34;2571489;55;20136;-69
2021/04/05 00:50:41;;;;;;;7.23;2.90;;;;;;;1.27;91.54;99081.25;2571168;55;20640;-69
2021/04/05 00:53:11;;;;;;;8.10;3.20;;;;;;;1.22;92.01;99077.16;2572108;55;20234;-70
2021/04/05 00:55:45;;;;;;;5.53;2.70;;;;;;;1.21;92.07;99069.34;2571288;55;20143;-69
2021/04/05 00:58:15;;;;;;;9.15;3.62;;;;;;;1.18;92.20;99065.13;2571237;55;20609;-69
2021/04/05 01:00:49;;;;;;;7.87;3.40;;;;;;;1.13;92.18;99075.09;2570741;55;20643;-69
2021/04/05 01:03:22;;;;;;;7.45;3.90;;;;;;;1.13;92.31;99067.22;2571376;55;20488;-69
2021/04/05 01:05:51;;;;;;;;;;;;;;;1.19;91.74;99064.19;2571879;55;20135;-69
2021/04/05 01:08:22;;;;;;;8.30;2.80;;;;;;;1.06;91.88;99052.75;2571946;55;20495;-69
2021/04/05 01:10:51;;;;;;;6.62;3.08;;;;;;;1.05;91.83;99059.81;2570938;55;20116;-70
2021/04/05 01:13:20;;;;;;;5.62;3.22;;;;;;;1.02;91.47;99048.66;2571573;55;20175;-70
2021/04/05 01:15:51;;;;;;;8.10;2.72;;;;;;;1.02;91.69;99048.66;2570902;55;20125;-70
2021/04/05 01:18:20;;;;;;;8.73;3.03;;;;;;;1.04;91.51;99046.75;2571822;55;20106;-69
2021/04/05 01:20:49;;;;;;;5.30;2.00;;;;;;;1.00;91.12;99043.47;2571046;55;20129;-68
2021/04/05 01:23:22;;;;;;;4.30;2.17;;;;;;;0.96;91.20;99034.13;2571651;55;20487;-69
2021/04/05 01:25:50;;;;;;;2.35;1.65;;;;;;;0.90;91.46;99035.34;2571962;55;20114;-69
2021/04/05 01:28:19;;;;;;;7.32;2.25;;;;;;;0.93;91.21;99039.53;2572216;55;20118;-70
2021/04/05 01:30:49;;;;;;;4.03;2.30;;;;;;;0.90;91.53;99029.22;2570957;55;20156;-70
2021/04/05 01:33:20;;;;;;;5.03;1.90;;;;;;;0.87;91.68;99027.63;2572890;55;20502;-69
2021/04/05 01:35:53;;;;;;;2.85;1.48;;;;;;;0.89;91.52;99023.13;2572537;55;20113;-69
2021/04/05 01:38:30;;;;;;;3.90;1.50;;;;;;;0.90;91.57;99030.09;2571703;55;20137;-70
2021/04/05 01:41:03;;;;;;;3.53;1.83;;;;;;;0.92;90.51;99032.59;2572963;55;20105;-69
2021/04/05 01:43:31;;;;;;;2.60;1.50;;;;;;;0.94;90.88;99031.56;2572923;55;20125;-69
2021/04/05 01:46:01;;;;;;;6.18;2.40;;;;;;;1.00;90.53;99029.50;2572721;55;20611;-69
2021/04/05 01:48:29;;;;;;;5.00;2.15;;;;;;;0.98;90.00;99016.47;2571939;55;20129;-69
2021/04/05 01:50:59;;;;;;;4.50;1.45;;;;;;;0.96;90.62;99015.72;2571943;55;20126;-70
2021/04/05 01:53:29;;;;;;;2.58;1.90;;;;;;;0.97;90.25;99010.37;2571589;55;20117;-69
2021/04/05 01:55:58;;;;;;;4.43;1.70;;;;;;;1.02;90.31;99006.62;2572087;55;20161;-70
2021/04/05 01:58:26;;;;;;;5.50;1.62;;;;;;;1.01;89.88;99002.31;2572698;55;20554;-70
2021/04/05 02:01:37;;;;;;;7.18;2.00;;;;;;;1.05;90.20;98998.53;2571991;55;20642;-70
2021/04/05 02:04:06;;;;;;;4.40;1.80;;;;;;;1.05;89.75;99003.78;2572757;55;20717;-70
2021/04/05 02:06:36;;;;;;;2.40;1.40;;;;;;;1.04;89.24;98991.59;2571420;55;20126;-69
2021/04/05 02:09:07;;;;;;;4.28;1.23;;;;;;;1.11;88.77;98979.78;2572693;55;20484;-70
2021/04/05 02:11:40;;;;;;;3.17;1.33;;;;;;;1.08;88.81;98969.44;2571942;55;20132;-69
2021/04/05 02:14:10;;;;;;;4.45;1.55;;;;;;;1.08;88.28;98982.56;2572146;55;20143;-70
2021/04/05 02:24:42;;;;;;;2.90;1.42;;;;;;;1.09;88.60;98950.09;2572793;55;20128;-69
2021/04/05 02:35:15;;;;;;;4.00;2.25;;;;;;;1.17;87.47;98942.59;2571855;55;20124;-70
2021/04/05 02:37:45;;;;;;;4.12;1.40;;;;;;;1.17;86.95;98915.50;2571616;55;20129;-69
2021/04/05 02:40:15;;;;;;;4.80;1.52;;;;;;;1.21;86.87;98920.44;2572401;55;20118;-70
2021/04/05 02:42:45;;;;;;;3.45;1.30;;;;;;;1.22;86.68;98908.12;2572394;55;20133;-69
2021/04/05 02:45:32;;;;;;;9.35;1.92;;;;;;;1.22;86.57;98909.00;2572687;55;20139;-69
2021/04/05 02:48:02;;;;;;;4.72;2.05;;;;;;;1.24;86.77;98925.50;2571490;55;20117;-69
2021/04/05 02:50:35;;;;;;;2.85;1.73;;;;;;;1.25;86.97;98929.81;2572267;55;20506;-68
2021/04/05 02:53:09;;;;;;;5.30;1.85;;;;;;;1.27;86.22;98915.72;2572503;55;20536;-69
2021/04/05 02:55:39;;;;;;;3.45;1.35;;;;;;;1.30;86.15;98926.87;2571593;55;20131;-69
2021/04/05 02:58:08;;;;;;;3.53;1.30;;;;;;;1.33;85.97;98931.91;2571990;55;20520;-69
2021/04/05 03:00:39;;;;;;;2.80;1.50;;;;;;;1.38;85.79;98924.59;2575844;55;20121;-69
2021/04/05 03:03:09;;;;;;;3.33;1.50;;;;;;;1.38;86.06;98934.25;2571756;55;20122;-69
2021/04/05 03:05:38;;;;;;;4.68;1.73;;;;;;;1.39;85.35;98921.00;2571345;55;20132;-71
2021/04/05 03:08:06;;;;;;;2.90;1.48;;;;;;;1.44;85.48;98923.34;2572205;55;20155;-68
2021/04/05 03:10:36;;;;;;;2.78;1.67;;;;;;;1.44;84.87;98917.22;2572307;55;20655;-69
2021/04/05 03:13:05;;;;;;;2.45;1.48;;;;;;;1.46;85.18;98920.63;2572432;55;20122;-69
2021/04/05 03:15:34;;;;;;;2.67;1.62;;;;;;;1.41;85.66;98915.66;2571690;55;20492;-69
2021/04/05 03:18:12;;;;;;;3.60;1.52;;;;;;;1.41;85.32;98907.78;2571660;55;20130;-69
2021/04/05 03:20:41;;;;;;;4.18;1.70;;;;;;;1.43;85.51;98910.28;2571276;55;20127;-69
2021/04/05 03:23:09;;;;;;;5.32;2.30;;;;;;;1.40;85.82;98908.69;2572319;55;20144;-69
2021/04/05 03:25:37;;;;;;;5.00;2.20;;;;;;;1.38;86.20;98908.81;2571450;55;20132;-69
2021/04/05 03:28:06;;;;;;;4.15;2.03;;;;;;;1.41;85.39;98897.28;2572066;55;20128;-70
2021/04/05 03:30:39;;;;;;;3.53;2.10;;;;;;;1.39;86.53;98901.75;2572343;55;20102;-70
2021/04/05 03:33:13;;;;;;;7.15;2.58;;;;;;;1.41;86.25;98886.75;2572365;55;20125;-69
2021/04/05 03:35:48;;;;;;;2.95;1.80;;;;;;;1.39;nan;98888.63;2571245;55;20121;-69
2021/04/05 03:38:18;;;;;;;3.58;2.22;;;;;;;1.43;85.37;98889.25;2571310;55;20492;-70
2021/04/05 03:40:46;;;;;;;3.97;1.98;;;;;;;1.45;85.37;98887.38;2572495;55;20680;-69
2021/04/05 03:43:21;;;;;;;4.07;2.15;;;;;;;1.49;85.75;98891.50;2572026;55;20110;-69
2021/04/05 03:45:55;;;;;;;5.60;1.98;;;;;;;1.52;85.37;98878.13;2571499;55;20121;-69
2021/04/05 03:48:31;;;;;;;4.97;2.00;;;;;;;1.54;85.59;98881.50;2571917;55;20125;-69
2021/04/05 03:51:09;;;;;;;4.20;1.83;;;;;;;1.53;86.05;98872.78;2571195;55;20158;-69
2021/04/05 03:53:41;;;;;;;8.30;2.83;;;;;;;1.52;86.12;98871.09;2572087;55;20129;-69
2021/04/05 03:56:17;;;;;;;5.75;2.45;;;;;;;1.50;85.30;98865.13;2572687;55;20123;-69
2021/04/05 03:58:49;;;;;;;4.93;2.17;;;;;;;1.52;84.91;98850.06;2572025;55;20126;-69
2021/04/05 04:01:27;;;;;;;4.75;2.55;;;;;;;1.55;85.56;98861.31;2571550;55;20612;-69
2021/04/05 04:04:04;;;;;;;5.50;2.30;;;;;;;1.57;84.89;98849.78;2572248;55;20130;-69
2021/04/05 04:06:40;;;;;;;5.80;2.45;;;;;;;1.56;84.84;98852.50;2570975;55;20131;-69
2021/04/05 04:09:09;;;;;;;4.25;2.00;;;;;;;1.58;84.62;98840.06;2571507;55;20628;-69
2021/04/05 04:11:39;;;;;;;15.73;4.40;;;;;;;1.56;86.04;98839.34;2572080;55;20129;-69
2021/04/05 04:14:14;;;;;;;7.80;2.80;;;;;;;1.56;84.90;98839.34;2572406;55;20132;-70
2021/04/05 04:16:44;;;;;;;6.10;2.33;;;;;;;1.56;85.37;98827.06;2572081;55;20122;-71
2021/04/05 04:19:15;;;;;;;6.57;2.75;;;;;;;1.59;85.24;98833.88;2571274;55;20122;-70
2021/04/05 04:21:46;;;;;;;5.30;2.20;;;;;;;1.57;84.67;98817.38;2571514;55;20120;-71
2021/04/05 04:24:17;;;;;;;4.45;2.45;;;;;;;1.59;85.15;98825.97;2572188;55;20113;-71
2021/04/05 04:26:46;;;;;;;6.72;2.80;;;;;;;1.62;84.47;98813.47;2571756;55;20113;-70
2021/04/05 04:29:21;;;;;;;6.90;3.25;;;;;;;1.69;85.17;98821.78;2571408;55;20117;-71
2021/04/05 04:31:51;;;;;;;8.02;3.50;;;;;;;1.67;85.48;98807.91;2571521;55;20140;-71
2021/04/05 04:34:22;;;;;;;7.32;3.12;;;;;;;1.67;84.77;98802.66;2571594;55;20129;-71
2021/04/05 04:36:50;;;;;;;7.75;3.00;;;;;;;1.66;85.10;98801.81;2571789;55;20504;-71
2021/04/05 04:39:21;;;;;;;7.47;3.17;;;;;;;1.64;84.92;98800.22;2572123;55;20136;-71
2021/04/05 04:41:52;;;;;;;5.22;3.00;;;;;;;1.70;85.06;98815.56;2571808;55;20125;-71
2021/04/05 04:44:22;;;;;;;6.45;3.33;;;;;;;1.70;84.71;98812.94;2572219;55;20135;-71
2021/04/05 04:46:50;;;;;;;7.62;3.05;;;;;;;1.69;85.05;98811.25;2571419;55;20136;-71
2021/04/05 04:49:17;;;;;;;6.55;3.60;;;;;;;1.71;84.45;98804.13;2571672;55;20128;-70
2021/04/05 04:51:49;;;;;;;10.25;3.15;;;;;;;1.73;85.39;98804.00;2571917;55;20113;-72
2021/04/05 04:54:19;;;;;;;5.70;2.85;;;;;;;1.71;85.23;98808.53;2571922;55;20169;-71
2021/04/05 04:56:48;;;;;;;7.70;2.50;;;;;;;1.73;84.90;98802.22;2571953;55;20686;-71
2021/04/05 04:59:24;;;;;;;7.82;2.87;;;;;;;1.74;84.62;98803.91;2572234;55;20128;-70
2021/04/05 05:01:53;;;;;;;5.32;2.10;;;;;;;1.79;85.05;98807.06;2571740;55;20124;-70
2021/04/05 05:04:24;;;;;;;6.78;2.65;;;;;;;1.76;84.89;98801.19;2570971;55;20121;-70
2021/04/05 05:06:53;;;;;;;7.87;2.70;;;;;;;1.78;84.25;98779.06;2572145;55;20113;-70
2021/04/05 05:09:22;;;;;;;8.07;2.50;;;;;;;1.80;84.67;98782.47;2572635;55;20654;-71
2021/04/05 05:11:51;;;;;;;8.90;4.60;;;;;;;1.83;84.92;98775.31;2572327;55;20145;-69
2021/04/05 05:14:28;;;;;;;6.37;2.67;;;;;;;1.85;84.32;98763.69;2572653;55;20135;-70
2021/04/05 05:16:58;;;;;;;7.68;3.20;;;;;;;1.91;84.52;98772.97;2572770;55;20139;-69
2021/04/05 05:19:29;;;;;;;10.18;3.30;;;;;;;1.89;84.29;98759.06;2572263;55;20134;-69
2021/04/05 05:22:00;;;;;;;4.87;2.37;;;;;;;1.93;84.61;98766.63;2572386;55;20168;-70
2021/04/05 05:24:32;;;;;;;5.60;3.03;;;;;;;1.92;84.93;98767.59;2572728;55;20492;-70
2021/04/05 05:27:04;;;;;;;8.02;4.12;;;;;;;1.94;84.62;98767.50;2570430;55;20132;-69
2021/04/05 05:29:37;;;;;;;5.85;2.92;;;;;;;1.92;83.94;98766.75;2572370;55;20117;-70
2021/04/05 05:32:06;;;;;;;6.95;3.10;;;;;;;1.98;84.32;98774.22;2571908;55;20125;-70
2021/04/05 05:34:36;;;;;;;3.75;2.35;;;;;;;1.96;85.05;98770.84;2572560;55;20546;-70
2021/04/05 05:37:04;;;;;;;4.65;2.42;;;;;;;1.96;85.15;98770.84;2571689;55;20132;-70
2021/04/05 05:39:31;;;;;;;5.95;2.47;;;;;;;2.02;85.31;98770.44;2572818;55;20126;-70
2021/04/05 05:42:12;;;;;;;13.23;2.45;;;;;;;2.03;84.67;98769.47;2572236;55;20135;-69
2021/04/05 05:44:48;;;;;;;4.35;2.42;;;;;;;2.01;85.19;98765.25;2572008;55;20144;-70
2021/04/05 05:47:27;;;;;;;8.77;2.70;;;;;;;2.02;84.78;98770.44;2571942;55;20118;-70
2021/04/05 05:50:06;;;;;;;5.87;2.60;;;;;;;2.02;84.95;98765.16;2572686;55;20155;-70
2021/04/05 05:52:53;;;;;;;5.87;2.95;;;;;;;2.04;85.15;98765.87;2572813;55;20122;-70
2021/04/05 05:56:13;;;;;;;6.00;3.10;;;;;;;2.09;85.30;98744.53;2572902;55;20126;-70
2021/04/05 05:58:49;;;;;;;5.93;2.58;;;;;;;2.08;84.31;98732.31;2546300;56;20614;-70
2021/04/05 06:01:36;;;;;;;5.97;2.62;;;;;;;2.08;85.51;98722.63;2551034;56;20134;-69
2021/04/05 06:04:29;;;;;;;7.47;2.40;;;;;;;2.09;85.21;98718.22;2568476;55;20132;-70
2021/04/05 06:07:05;;;;;;;7.37;2.58;;;;;;;2.09;85.51;98720.84;2572953;55;20132;-70
2021/04/05 06:09:54;;;;;;;6.43;2.53;;;;;;;2.09;85.72;98708.50;2572226;55;20144;-69
2021/04/05 06:12:30;;;;;;;5.00;2.28;;;;;;;2.06;85.00;98713.19;2571004;55;20120;-70
2021/04/05 06:15:06;;;;;;;6.25;2.70;;;;;;;2.07;85.74;98704.34;2572180;55;20117;-69
2021/04/05 06:18:05;;;;;;;6.32;2.70;;;;;;;2.11;85.49;98716.31;2571274;55;20126;-70
2021/04/05 06:20:38;;;;;;;6.47;2.50;;;;;;;2.09;85.66;98703.25;2571985;55;20128;-69
2021/04/05 06:23:37;;;;;;;8.05;3.05;;;;;;;2.15;85.77;98698.50;2573174;55;20109;-70
2021/04/05 06:26:16;;;;;;;3.60;2.33;;;;;;;2.22;85.27;98697.13;2572559;55;20597;-70
2021/04/05 06:28:53;;;;;;;5.12;2.55;;;;;;;2.21;85.71;98695.44;2572702;55;20124;-70
2021/04/05 06:31:52;;;;;;;8.32;2.92;;;;;;;2.22;85.30;98697.94;2572182;55;20132;-70
2021/04/05 06:34:35;;;;;;;4.03;1.58;;;;;;;2.26;85.36;98695.09;2572834;55;20126;-70
2021/04/05 06:37:17;;;;;;;4.47;2.33;;;;;;;2.27;84.70;98688.88;2571525;55;20154;-70
2021/04/05 06:39:50;;;;;;;8.88;2.40;;;;;;;2.35;84.93;98690.00;2571923;55;20563;-70
2021/04/05 06:42:40;;;;;;;3.78;2.25;;;;;;;2.41;85.38;98695.78;2572175;55;20125;-70
2021/04/05 06:45:31;;;;;;;12.05;2.60;;;;;;;2.42;85.20;98682.47;2572585;55;20291;-70
2021/04/05 06:48:28;;;;;;;6.90;2.40;;;;;;;2.56;84.29;98697.25;2572103;55;20114;-70
2021/04/05 06:51:04;;;;;;;6.15;2.35;;;;;;;2.56;84.73;98699.06;2572312;55;20165;-70
2021/04/05 06:54:10;;;;;;;6.68;2.62;;;;;;;2.58;84.16;98690.06;2571936;55;20109;-70
2021/04/05 06:56:54;;;;;;;5.87;2.40;;;;;;;2.61;84.33;98699.56;2571732;55;20576;-70
2021/04/05 06:59:32;;;;;;;7.72;3.70;;;;;;;2.66;84.88;98699.22;2572399;55;20508;-70
2021/04/05 07:02:25;;;;;;;5.43;2.25;;;;;;;2.64;84.73;98684.38;2572157;55;20725;-71
2021/04/05 07:05:07;;;;;;;6.00;2.35;;;;;;;2.72;84.48;98689.06;2571540;55;20124;-70
2021/04/05 07:07:45;;;;;;;5.28;2.40;;;;;;;2.73;84.74;98697.81;2572444;55;20128;-69
2021/04/05 07:10:20;;;;;;;5.57;2.37;;;;;;;2.72;83.98;98689.06;2572109;55;20136;-70
2021/04/05 07:13:01;;;;;;;4.22;2.40;;;;;;;2.78;85.19;98693.88;2572476;55;20128;-70
2021/04/05 07:15:46;;;;;;;6.93;2.80;;;;;;;2.81;84.94;98682.28;2572472;55;20128;-70
2021/04/05 07:18:31;;;;;;;5.60;2.55;;;;;;;2.90;85.00;98689.44;2571830;55;20135;-70
2021/04/05 07:21:12;;;;;;;6.47;2.35;;;;;;;2.92;84.09;98692.84;2572344;55;20105;-70
2021/04/05 07:23:52;;;;;;;5.78;2.33;;;;;;;2.95;83.86;98680.38;2572658;55;20118;-70
2021/04/05 07:26:27;;;;;;;4.10;2.20;;;;;;;2.94;85.02;98683.97;2571872;55;20120;-70
2021/04/05 07:29:02;;;;;;;6.93;3.33;;;;;;;2.97;85.08;98676.69;2572376;55;20627;-70
2021/04/05 07:31:40;;;;;;;6.70;2.85;;;;;;;2.97;84.82;98675.81;2572228;55;20114;-70
2021/04/05 07:34:34;;;;;;;6.28;2.65;;;;;;;3.04;85.10;98682.31;2572485;55;20662;-70
2021/04/05 07:37:20;;;;;;;4.43;2.60;;;;;;;3.01;84.98;98682.56;2570844;55;20148;-70
2021/04/05 07:40:00;;;;;;;8.38;2.90;;;;;;;3.02;85.48;98689.50;2571783;55;20539;-70
2021/04/05 07:42:34;;;;;;;7.43;2.67;;;;;;;3.00;85.28;98680.84;2572324;55;20663;-71
2021/04/05 07:45:08;;;;;;;5.43;2.70;;;;;;;3.01;85.57;98677.28;2572161;55;20599;-71
2021/04/05 07:47:42;;;;;;;9.23;4.35;;;;;;;3.01;85.18;98679.91;2571101;55;20512;-71
2021/04/05 07:50:19;;;;;;;4.97;3.05;;;;;;;3.03;85.70;98673.56;2572317;55;20121;-71
2021/04/05 07:52:54;;;;;;;8.02;2.70;;;;;;;3.08;84.84;98667.94;2572482;55;20125;-70
2021/04/05 07:55:24;;;;;;;6.85;3.00;;;;;;;3.11;84.81;98678.25;2571849;55;20654;-71
2021/04/05 07:58:01;;;;;;;6.68;3.95;;;;;;;3.20;85.64;98666.16;2572157;55;20117;-71
2021/04/05 08:00:36;;;;;;;8.55;3.50;;;;;;;3.19;85.43;98665.31;2571351;55;20132;-70
2021/04/05 08:03:20;;;;;;;5.07;2.95;;;;;;;3.28;85.68;98671.69;2571904;55;20133;-71
2021/04/05 08:06:00;;;;;;;5.35;3.45;;;;;;;3.28;85.29;98662.91;2572410;55;20117;-71
2021/04/05 08:08:39;;;;;;;6.10;3.60;;;;;;;3.28;85.10;98669.03;2572225;55;20626;-71
2021/04/05 08:11:18;;;;;;;7.87;3.17;;;;;;;3.25;85.12;98676.34;2571369;55;20098;-71
2021/04/05 08:13:59;;;;;;;11.45;3.92;;;;;;;3.18;85.37;98652.25;2572463;55;20106;-70
2021/04/05 08:16:33;;;;;;;6.68;3.10;;;;;;;3.24;85.23;98648.31;2571705;55;20118;-70
2021/04/05 08:19:09;;;;;;;8.82;3.40;;;;;;;3.27;84.51;98682.31;2572503;55;20121;-71
2021/04/05 08:21:42;;;;;;;6.03;3.25;;;;;;;3.22;85.52;98655.50;2571346;55;20761;-70
2021/04/05 08:24:22;;;;;;;5.70;3.30;;;;;;;3.15;85.25;98663.88;2571343;55;20130;-71
2021/04/05 08:26:57;;;;;;;11.77;3.90;;;;;;;3.14;85.71;98670.09;2572127;55;20126;-70
2021/04/05 08:29:33;;;;;;;9.13;3.60;;;;;;;3.11;86.31;98662.44;2572131;55;20119;-70
2021/04/05 08:32:14;;;;;;;8.20;3.33;;;;;;;3.15;85.96;98647.22;2571771;55;20113;-71
2021/04/05 08:35:03;;;;;;;7.97;3.65;;;;;;;3.18;86.50;98660.16;2571251;55;20139;-71
2021/04/05 08:37:40;;;;;;;7.47;3.20;;;;;;;3.20;85.82;98664.34;2571839;55;20679;-70
2021/04/05 08:40:13;;;;;;;10.07;4.70;;;;;;;3.22;85.95;98669.50;2571819;55;20121;-71
2021/04/05 08:42:55;;;;;;;6.82;3.80;;;;;;;3.24;86.11;98659.69;2571896;55;20117;-70
2021/04/05 08:45:25;;;;;;;8.25;4.60;;;;;;;3.25;86.18;98665.81;2572022;55;20109;-70
2021/04/05 08:47:58;;;;;;;8.82;3.53;;;;;;;3.28;85.82;98657.66;2572033;55;20117;-70
2021/04/05 08:50:30;;;;;;;6.25;3.42;;;;;;;3.32;84.80;98680.19;2571806;55;20632;-70
2021/04/05 08:52:59;;;;;;;14.18;5.28;;;;;;;3.30;85.73;98664.47;2571799;55;20147;-71
2021/04/05 08:55:30;;;;;;;11.68;4.28;;;;;;;3.37;85.73;98672.75;2572062;55;20127;-71
2021/04/05 08:58:05;;;;;;;7.40;4.10;;;;;;;3.42;85.77;98667.97;2570859;55;20147;-71
2021/04/05 09:00:37;;;;;;;8.35;4.07;;;;;;;3.45;85.47;98667.72;2571652;55;20118;-70
2021/04/05 09:03:08;;;;;;;11.85;4.40;;;;;;;3.44;84.62;98679.22;2571308;55;20158;-70
2021/04/05 09:05:43;;;;;;;6.80;4.20;;;;;;;3.43;84.77;98667.00;2571757;55;20139;-71
2021/04/05 09:08:12;;;;;;;7.78;3.65;;;;;;;3.43;84.57;98651.19;2571918;55;20109;-71
2021/04/05 09:10:46;;;;;;;12.73;6.25;;;;;;;3.45;84.65;98665.09;2571513;55;20129;-71
2021/04/05 09:13:19;;;;;;;8.55;4.53;;;;;;;3.45;84.25;98665.09;2571066;55;20648;-71
2021/04/05 09:16:24;;;;;;;15.40;4.28;;;;;;;3.53;84.52;98661.00;2571574;55;20113;-71
2021/04/05 09:19:27;;;;;;;8.60;4.68;;;;;;;3.55;83.67;98659.09;2570992;55;20137;-71
2021/04/05 09:22:24;;;;;;;9.93;4.43;;;;;;;3.56;84.06;98666.87;2572165;55;20110;-70
2021/04/05 09:25:10;;;;;;;10.48;4.35;;;;;;;3.49;84.40;98639.31;2570786;55;20110;-70
2021/04/05 09:28:03;;;;;;;7.90;4.03;;;;;;;3.70;83.04;98660.50;2571913;55;20628;-70
2021/04/05 09:30:55;;;;;;;9.07;4.55;;;;;;;3.65;83.58;98670.59;2571560;55;20125;-69
2021/04/05 09:34:10;;;;;;;10.57;4.30;;;;;;;3.67;83.14;98673.94;2571926;55;20535;-70
2021/04/05 09:37:10;;;;;;;11.95;4.10;;;;;;;3.63;83.09;98675.16;2571963;55;20149;-70
2021/04/05 09:40:05;;;;;;;8.50;4.00;;;;;;;3.62;82.91;98691.94;2571611;55;20125;-71
2021/04/05 09:42:51;;;;;;;8.55;4.75;;;;;;;3.60;82.35;98683.28;2571917;55;20113;-71
2021/04/05 09:45:27;;;;;;;16.70;5.20;;;;;;;3.56;82.88;98676.59;2571625;55;20630;-71
2021/04/05 09:48:12;;;;;;;6.22;3.45;;;;;;;3.56;83.35;98660.75;2571734;55;20125;-71
2021/04/05 09:50:55;;;;;;;7.55;4.25;;;;;;;3.53;82.57;98679.47;2571779;55;20114;-70
2021/04/05 09:53:44;;;;;;;8.75;4.45;;;;;;;3.55;82.91;98677.53;2572392;55;20125;-70
2021/04/05 09:56:20;;;;;;;9.68;5.10;;;;;;;3.51;82.14;98673.44;2572631;55;20130;-70
2021/04/05 09:58:52;;;;;;;8.57;4.00;;;;;;;3.49;81.84;98676.22;2572947;55;20118;-70
2021/04/05 10:01:23;;;;;;;10.98;3.62;;;;;;;3.50;82.42;98679.69;2572207;55;20114;-70
2021/04/05 10:03:57;;;;;;;10.25;4.40;;;;;;;3.45;81.88;98666.87;2572927;55;20135;-70
2021/04/05 10:06:30;;;;;;;7.95;3.87;;;;;;;3.49;82.43;98670.97;2572432;55;20127;-70
2021/04/05 10:08:59;;;;;;;6.60;3.42;;;;;;;3.51;81.77;98670.81;2572338;55;20135;-70
2021/04/05 10:11:29;;;;;;;6.97;3.62;;;;;;;3.58;81.76;98658.84;2572477;55;20124;-71
2021/04/05 10:14:02;;;;;;;8.68;3.65;;;;;;;3.59;81.94;98663.16;2571774;55;20106;-70
2021/04/05 10:16:32;;;;;;;7.93;3.35;;;;;;;3.67;81.29;98655.47;2572070;55;20139;-70
2021/04/05 10:19:06;;;;;;;6.25;3.90;;;;;;;3.68;81.76;98643.97;2572576;55;20110;-70
2021/04/05 10:21:36;;;;;;;7.18;3.33;;;;;;;3.76;80.19;98646.81;2572418;55;20127;-70
2021/04/05 10:24:05;;;;;;;8.43;3.62;;;;;;;3.75;81.76;98644.31;2572162;55;20132;-70
2021/04/05 10:26:35;;;;;;;8.63;4.87;;;;;;;3.86;81.33;98646.09;2572567;55;20524;-70
2021/04/05 10:29:08;;;;;;;10.00;3.60;;;;;;;3.94;80.11;98643.69;2572328;55;20132;-70
2021/04/05 10:31:37;;;;;;;7.10;3.15;;;;;;;4.00;79.00;98637.06;2572463;55;20696;-70
2021/04/05 10:34:08;;;;;;;9.95;3.67;;;;;;;4.15;79.72;98625.25;2572718;55;20117;-70
2021/04/05 10:36:41;;;;;;;5.43;3.60;;;;;;;4.34;78.62;98622.91;2571778;55;20128;-70
2021/04/05 10:39:09;;;;;;;12.48;3.33;;;;;;;4.53;77.74;98620.41;2572751;55;20128;-70
2021/04/05 10:41:45;;;;;;;9.85;4.25;;;;;;;4.68;76.47;98593.66;2572291;55;20134;-70
2021/04/05 10:44:15;;;;;;;9.10;4.15;;;;;;;4.67;76.25;98613.97;2572360;55;20134;-70
2021/04/05 10:46:47;;;;;;;6.37;3.67;;;;;;;4.66;75.64;98595.59;2572337;55;20505;-70
2021/04/05 10:49:18;;;;;;;8.75;3.92;;;;;;;4.70;76.78;98571.44;2572573;55;20136;-71
2021/04/05 10:51:47;;;;;;;4.28;2.85;;;;;;;4.74;75.03;98587.88;2572028;55;20106;-70
2021/04/05 10:54:22;;;;;;;6.82;2.72;;;;;;;4.74;74.46;98590.50;2571964;55;20113;-70
2021/04/05 10:56:54;;;;;;;13.60;3.20;;;;;;;4.71;74.70;98583.69;2572082;55;20121;-70
2021/04/05 10:59:29;;;;;;;6.20;2.58;;;;;;;4.69;76.33;98568.91;2571344;55;20122;-69
2021/04/05 11:01:59;;;;;;;7.35;3.00;;;;;;;4.73;74.50;98565.88;2572420;55;20105;-71
2021/04/05 11:04:33;;;;;;;7.30;3.00;;;;;;;4.83;75.30;98575.66;2571558;55;20132;-70
2021/04/05 11:07:02;;;;;;;6.03;2.67;;;;;;;4.80;74.39;98576.75;2572154;55;20110;-70
2021/04/05 11:09:37;;;;;;;10.30;2.87;;;;;;;4.78;74.02;98589.28;2572432;55;20113;-70
2021/04/05 11:12:07;;;;;;;5.68;2.62;;;;;;;4.80;73.97;98582.06;2572084;55;20118;-70
2021/04/05 11:14:37;;;;;;;6.75;2.95;;;;;;;4.77;74.29;98566.47;2572096;55;20121;-70
2021/04/05 11:17:06;;;;;;;6.72;3.15;;;;;;;4.78;73.74;98560.22;2572163;55;20183;-70
2021/04/05 11:19:37;;;;;;;7.30;2.67;;;;;;;4.76;74.55;98554.22;2572155;55;20127;-70
2021/04/05 11:22:13;;;;;;;6.82;3.12;;;;;;;4.78;74.03;98547.00;2572047;55;20124;-70
2021/04/05 11:24:42;;;;;;;6.78;2.50;;;;;;;4.87;74.15;98556.78;2572300;55;20132;-70
2021/04/05 11:27:13;;;;;;;5.47;2.62;;;;;;;4.92;73.07;98555.56;2572228;55;20131;-70
2021/04/05 11:29:44;;;;;;;7.20;2.12;;;;;;;4.91;73.31;98548.56;2571273;55;20244;-70
2021/04/05 11:32:16;;;;;;;4.80;2.55;;;;;;;4.91;72.30;98549.44;2572332;55;20388;-70
2021/04/05 11:34:50;;;;;;;5.87;2.65;;;;;;;4.96;72.70;98567.53;2571237;55;20122;-70
2021/04/05 11:37:19;;;;;;;12.18;2.67;;;;;;;4.92;72.22;98552.94;2572066;55;20133;-70
2021/04/05 11:39:55;;;;;;;8.85;2.60;;;;;;;4.92;73.08;98556.38;2571928;55;20118;-70
2021/04/05 11:42:30;;;;;;;5.65;2.50;;;;;;;4.97;72.58;98540.13;2572214;55;20110;-70
2021/04/05 11:45:01;;;;;;;4.20;2.20;;;;;;;4.98;73.55;98540.00;2571917;55;20631;-71
2021/04/05 11:47:37;;;;;;;6.12;2.35;;;;;;;4.99;72.51;98524.97;2572216;55;20508;-70
2021/04/05 11:50:14;;;;;;;5.70;2.00;;;;;;;5.00;72.88;98530.13;2572455;55;20653;-70
2021/04/05 11:52:48;;;;;;;8.27;3.03;;;;;;;5.03;72.33;98518.47;2571894;55;20532;-71
2021/04/05 11:55:22;;;;;;;7.78;2.28;;;;;;;5.12;71.04;98516.81;2572267;55;20123;-71
2021/04/05 11:57:56;;;;;;;5.12;2.12;;;;;;;5.12;71.90;98496.53;2572507;55;20105;-70
2021/04/05 12:00:32;;;;;;;7.28;2.58;;;;;;;5.12;72.81;98512.38;2572107;55;20484;-70
2021/04/05 12:03:10;;;;;;;4.53;2.10;;;;;;;5.18;73.07;98510.16;2571472;55;20128;-70
2021/04/05 12:05:43;;;;;;;6.87;2.22;;;;;;;5.27;71.48;98523.41;2572037;55;20139;-70
2021/04/05 12:08:13;;;;;;;5.00;1.42;;;;;;;5.36;70.55;98511.19;2571372;55;20504;-70
2021/04/05 12:10:44;;;;;;;3.45;2.00;;;;;;;5.45;70.63;98504.22;2571865;55;20129;-70
2021/04/05 12:13:16;;;;;;;6.35;2.33;;;;;;;5.52;71.49;98496.59;2571077;55;20511;-70
2021/04/05 12:15:46;;;;;;;7.53;2.45;;;;;;;5.67;70.56;98499.66;2571801;55;20106;-71
2021/04/05 12:18:21;;;;;;;8.30;2.67;;;;;;;5.74;69.82;98497.31;2572446;55;20628;-71
2021/04/05 12:20:59;;;;;;;3.35;2.10;;;;;;;5.83;70.05;98483.22;2571603;55;20682;-71
2021/04/05 12:23:28;;;;;;;9.55;2.10;;;;;;;5.92;70.14;98502.72;2572352;55;20638;-71
2021/04/05 12:25:56;;;;;;;6.50;2.35;;;;;;;5.93;68.51;98505.25;2572086;55;20165;-70
2021/04/05 12:28:33;;;;;;;8.73;2.53;;;;;;;5.95;68.53;98489.19;2571981;55;20128;-71
2021/04/05 12:31:03;;;;;;;5.00;2.28;;;;;;;5.97;68.67;98496.03;2571965;55;20198;-71
2021/04/05 12:33:34;;;;;;;4.53;2.12;;;;;;;5.95;68.78;98505.94;2572126;55;20137;-71